createdAt,value
2018-12-05T00:03:19.104Z,21.93
2018-12-05T00:09:14.136Z,21.42
2018-12-05T00:15:09.113Z,22.67
2018-12-05T00:21:04.106Z,23.02
2018-12-05T00:26:59.142Z,26.6
2018-12-05T00:32:54.075Z,28.41
2018-12-05T00:38:49.101Z,21.03
2018-12-05T00:44:44.113Z,24.22
2018-12-05T00:50:39.100Z,22.21
2018-12-05T00:56:34.102Z,20.58
2018-12-05T01:02:29.097Z,19.96
2018-12-05T01:08:24.138Z,21.26
2018-12-05T01:14:19.154Z,20.56
2018-12-05T01:20:14.136Z,13.57
2018-12-05T01:26:09.148Z,12.75
2018-12-05T01:32:04.142Z,14.5
2018-12-05T01:37:59.115Z,13.07
2018-12-05T01:43:54.160Z,14.8
2018-12-05T01:49:49.149Z,26.98
2018-12-05T01:55:44.129Z,18.28
2018-12-05T02:01:39.168Z,14.35
2018-12-05T02:07:34.155Z,12.67
2018-12-05T02:13:29.145Z,12.16
2018-12-05T02:19:24.154Z,12.12
2018-12-05T02:25:19.150Z,13.09
2018-12-05T02:31:14.187Z,11.23
2018-12-05T02:37:09.192Z,10.69
2018-12-05T02:43:04.192Z,10.23
2018-12-05T02:48:59.158Z,9.65
2018-12-05T02:54:54.189Z,18.32
2018-12-05T03:00:49.212Z,10.95
2018-12-05T03:06:44.168Z,9.23
2018-12-05T03:12:39.202Z,9.73
2018-12-05T03:18:34.275Z,10.46
2018-12-05T03:24:29.268Z,9.29
2018-12-05T03:30:24.183Z,7.41
2018-12-05T03:36:19.197Z,9.38
2018-12-05T03:42:14.192Z,9.8
2018-12-05T03:48:09.199Z,10.64
2018-12-05T03:54:04.195Z,8.79
2018-12-05T03:59:59.190Z,7.63
2018-12-05T04:05:54.236Z,8.65
2018-12-05T04:11:49.216Z,7.89
2018-12-05T04:17:44.255Z,7.81
2018-12-05T04:23:39.201Z,8.11
2018-12-05T04:29:34.230Z,9.09
2018-12-05T04:35:29.231Z,8.97
2018-12-05T04:41:24.235Z,7.32
2018-12-05T04:47:19.225Z,7.59
2018-12-05T04:53:14.241Z,8.06
2018-12-05T04:59:09.233Z,7.37
2018-12-05T05:05:04.287Z,8.2
2018-12-05T05:10:59.240Z,8.71
2018-12-05T05:16:54.251Z,7.91
2018-12-05T05:22:49.259Z,8.77
2018-12-05T05:28:44.245Z,8.7
2018-12-05T05:34:39.244Z,10.29
2018-12-05T05:40:34.248Z,9.93
2018-12-05T05:46:29.261Z,9.74
2018-12-05T05:52:24.319Z,9.53
2018-12-05T05:58:19.261Z,8.79
2018-12-05T06:04:14.259Z,7.39
2018-12-05T06:10:09.272Z,7.75
2018-12-05T06:16:04.266Z,9.1
2018-12-05T06:21:59.281Z,7.57
2018-12-05T06:27:54.320Z,49.03
2018-12-05T06:33:49.285Z,22.95
2018-12-05T06:39:44.284Z,8.08
2018-12-05T06:45:39.311Z,7.57
2018-12-05T06:51:34.284Z,6.68
2018-12-05T06:57:29.276Z,10.63
2018-12-05T07:03:24.329Z,8.67
2018-12-05T07:09:19.310Z,8.85
2018-12-05T07:15:14.286Z,15.34
2018-12-05T07:21:09.292Z,6.91
2018-12-05T07:27:04.307Z,7.78
2018-12-05T07:32:59.311Z,8.75
2018-12-05T07:38:54.354Z,8.72
2018-12-05T07:44:49.322Z,9.5
2018-12-05T07:50:44.339Z,8.2
2018-12-05T07:56:39.322Z,11.98
2018-12-05T08:02:34.312Z,11.89
2018-12-05T08:08:29.348Z,10.21
2018-12-05T08:14:24.359Z,12.47
2018-12-05T08:20:19.327Z,11.61
2018-12-05T08:26:14.360Z,11.52
2018-12-05T08:32:09.367Z,10.25
2018-12-05T08:38:04.336Z,12.4
2018-12-05T08:43:59.344Z,11.22
2018-12-05T08:49:54.351Z,12.49
2018-12-05T08:55:49.351Z,12.53
2018-12-05T09:01:44.360Z,12.41
2018-12-05T09:07:39.351Z,18.27
2018-12-05T09:13:34.369Z,23.02
2018-12-05T09:19:29.475Z,19.43
2018-12-05T09:25:24.370Z,19.37
2018-12-05T09:31:19.366Z,17.94
2018-12-05T09:37:14.396Z,18.36
2018-12-05T09:43:09.390Z,22.26
2018-12-05T09:49:04.372Z,21.01
2018-12-05T09:54:59.463Z,23.08
2018-12-05T10:00:54.404Z,20.27
2018-12-05T10:06:49.405Z,20.36
2018-12-05T10:12:44.381Z,18.49
2018-12-05T10:18:39.408Z,17.86
2018-12-05T10:24:34.413Z,20.8
2018-12-05T10:30:29.377Z,21.96
2018-12-05T10:36:24.417Z,19.45
2018-12-05T10:42:19.434Z,18.55
2018-12-05T10:48:14.422Z,24.19
2018-12-05T10:54:09.413Z,21.06
2018-12-05T11:00:04.410Z,20.54
2018-12-05T11:05:59.500Z,19.88
2018-12-05T11:11:54.455Z,18.43
2018-12-05T11:17:49.417Z,23.29
2018-12-05T11:23:44.407Z,25.01
2018-12-05T11:29:39.418Z,24.2
2018-12-05T11:35:36.165Z,29.6
2018-12-05T11:41:29.438Z,29.77
2018-12-05T11:47:24.463Z,30.93
2018-12-05T11:53:19.479Z,33.5
2018-12-05T11:59:14.435Z,30.69
2018-12-05T12:05:09.498Z,32.62
2018-12-05T12:11:04.503Z,32.59
2018-12-05T12:16:59.463Z,33.75
2018-12-05T12:22:54.485Z,33.21
2018-12-05T12:28:49.462Z,46.12
2018-12-05T12:34:44.501Z,42.96
2018-12-05T12:40:39.458Z,39.56
2018-12-05T12:46:34.470Z,42.96
2018-12-05T12:52:29.466Z,49.39
2018-12-05T12:58:24.478Z,50.08
2018-12-05T13:04:19.477Z,55.69
2018-12-05T13:10:14.525Z,35.7
2018-12-05T13:16:09.471Z,33.55
2018-12-05T13:22:04.487Z,31.21
2018-12-05T13:27:59.512Z,34.7
2018-12-05T13:33:54.481Z,39.55
2018-12-05T13:45:44.576Z,36.68
2018-12-05T13:45:44.586Z,36.9
2018-12-05T13:51:39.499Z,34.25
2018-12-05T13:57:34.520Z,34.34
2018-12-05T14:03:29.504Z,36.77
2018-12-05T14:09:24.573Z,44.9
2018-12-05T14:21:14.526Z,45.51
2018-12-05T14:21:14.526Z,49.32
2018-12-05T14:27:09.542Z,37.15
2018-12-05T14:33:04.516Z,34.09
2018-12-05T14:38:59.530Z,32.29
2018-12-05T14:44:54.578Z,31.87
2018-12-05T14:50:49.581Z,36.62
2018-12-05T14:56:44.549Z,35.91
2018-12-05T15:02:39.534Z,32.47
2018-12-05T15:08:34.549Z,30.78
2018-12-05T15:14:29.569Z,32.52
2018-12-05T15:20:24.569Z,30.57
2018-12-05T15:26:19.554Z,29.45
2018-12-05T15:32:14.559Z,34.71
2018-12-05T15:38:09.571Z,31.64
2018-12-05T15:44:04.566Z,35
2018-12-05T15:49:59.600Z,38.81
2018-12-05T15:55:54.601Z,105.98
2018-12-05T16:01:49.576Z,42.74
2018-12-05T16:07:44.559Z,31.35
2018-12-05T16:13:39.583Z,28
2018-12-05T16:19:34.583Z,25.38
2018-12-05T16:25:29.586Z,65.68
2018-12-05T16:31:24.632Z,42.53
2018-12-05T16:37:19.680Z,54.69
2018-12-05T16:43:14.607Z,44.43
2018-12-05T16:49:09.600Z,23.53
2018-12-05T16:55:04.655Z,22.59
2018-12-05T17:00:59.604Z,21.53
2018-12-05T17:06:54.616Z,22.06
2018-12-05T17:12:49.602Z,21.56
2018-12-05T17:18:44.616Z,18.67
2018-12-05T17:24:39.676Z,18.6
2018-12-05T17:30:34.606Z,22.76
2018-12-05T17:36:29.621Z,15.87
2018-12-05T17:42:24.623Z,26.2
2018-12-05T17:48:19.676Z,22.38
2018-12-05T17:54:15.167Z,17.83
2018-12-05T18:00:09.635Z,19.74
2018-12-05T18:06:04.702Z,24.45
2018-12-05T18:11:59.650Z,29.32
2018-12-05T18:17:54.631Z,23.15
2018-12-05T18:23:49.660Z,29.72
2018-12-05T18:29:44.650Z,32.26
2018-12-05T18:35:39.672Z,35.32
2018-12-05T18:41:34.688Z,39.76
2018-12-05T18:47:29.700Z,32.55
2018-12-05T18:53:24.682Z,25.63
2018-12-05T18:59:19.721Z,25.53
2018-12-05T19:05:14.673Z,22.81
2018-12-05T19:11:09.685Z,20.3
2018-12-05T19:17:04.711Z,29.05
2018-12-05T19:22:59.662Z,34.69
2018-12-05T19:28:54.676Z,36.36
2018-12-05T19:34:49.677Z,32.93
2018-12-05T19:40:44.695Z,25.98
2018-12-05T19:46:39.711Z,25.3
2018-12-05T19:52:34.715Z,29.09
2018-12-05T19:58:29.707Z,29.51
2018-12-05T20:04:24.705Z,38.39
2018-12-05T20:10:19.692Z,48.19
2018-12-05T20:16:14.727Z,31.8
2018-12-05T20:22:09.725Z,39.52
2018-12-05T20:28:04.722Z,33.49
2018-12-05T20:33:59.716Z,29.21
2018-12-05T20:39:54.711Z,22.53
2018-12-05T20:45:49.734Z,23.83
2018-12-05T20:51:44.723Z,28.71
2018-12-05T20:57:39.721Z,51.7
2018-12-05T21:03:34.759Z,54.21
2018-12-05T21:09:29.740Z,34.54
2018-12-05T21:15:24.746Z,21.72
2018-12-05T21:21:19.763Z,25.4
2018-12-05T21:27:14.800Z,26.46
2018-12-05T21:33:09.753Z,25.12
2018-12-05T21:39:04.754Z,26.07
2018-12-05T21:44:59.765Z,16.76
2018-12-05T21:50:54.787Z,17.3
2018-12-05T21:56:49.750Z,15.55
2018-12-05T22:02:44.787Z,13.03
2018-12-05T22:08:39.771Z,11.98
2018-12-05T22:14:34.821Z,14.83
2018-12-05T22:20:29.848Z,21.17
2018-12-05T22:26:24.771Z,24.07
2018-12-05T22:32:19.781Z,28.6
2018-12-05T22:38:14.766Z,31.2
2018-12-05T22:44:09.786Z,36.72
2018-12-05T22:50:04.801Z,37.84
2018-12-05T22:55:59.787Z,34.58
2018-12-05T23:01:54.781Z,35.89
2018-12-05T23:07:49.799Z,37.99
2018-12-05T23:13:44.801Z,37.13
2018-12-05T23:19:39.818Z,43.36
2018-12-05T23:25:34.809Z,51.09
2018-12-05T23:31:29.792Z,30.48
2018-12-05T23:37:24.856Z,32.55
2018-12-05T23:43:19.823Z,31.49
2018-12-05T23:49:14.854Z,30.7
2018-12-05T23:55:09.917Z,33.57
